PWSweather.com
Personal Weather Stations
Station Observations
IACHARNE2
Acharnes, AthensGR

AcharnesAthensGR

Lat: 38.054318, Lon: 23.443547

Elevation: 640

Station Type: ProWeatherStation

http://www.meteoacharnes.gr

Latest ConditionsUpdated 4:05:03 PM GMT+02:02 Sunday, Jan 22, 2017
Currently Today's Max Today's Min Today's Average
Temperature 47.5°F8.6°C 50.2°F10.1°C 35.6°F2.0°C 41.9°F5.5°C
Dew Point 35.9°F2.2°C 42.5°F5.8°C 33.5°F0.8°C 36.6°F2.6°C
Winds 10.5 mph ENE16.9 kmh ENE 13.8 mph ENE22.2 kmh ENE - 4.7 mph 7.6 kmh
Wind Gusts 25.1 mph40.4 kmh 31.1 mph50.1 kmh - -
Humidity 64% 94% 63% 82%
Pressure 30.38 in1028.8 mb 30.44 in1030.8 mb 30.38 in1028.8 mb -
Hour Temp Dew Point Humidity Winds Wind Gusts Pressure Precip Precip Rate Daily Precip Total
04:05 PM 47.5°F8.6°C 35.9°F2.2°C 64% 10.5 mph ENE16.9 kmh ENE 25.1 mph40.4 kmh 30.38 in1028.8 mb 0.00 in0.0 mm 0.00 in0.0 mm 0.00 in0.0 mm
04:00 PM 47.8°F8.8°C 36.3°F2.4°C 64% 11.9 mph NE19.2 kmh NE 25.1 mph40.4 kmh 30.38 in1028.8 mb 0.00 in0.0 mm 0.00 in0.0 mm 0.00 in0.0 mm
03:55 PM 48.0°F8.9°C 36.4°F2.4°C 64% 11.9 mph NE19.2 kmh NE 22.8 mph36.7 kmh 30.38 in1028.8 mb 0.00 in0.0 mm 0.00 in0.0 mm 0.00 in0.0 mm
03:50 PM 48.0°F8.9°C 36.0°F2.2°C 63% 11.8 mph ENE19.0 kmh ENE 22.8 mph36.7 kmh 30.38 in1028.8 mb 0.00 in0.0 mm 0.00 in0.0 mm 0.00 in0.0 mm
03:45 PM 48.4°F9.1°C 36.8°F2.7°C 64% 11.7 mph ENE18.8 kmh ENE 22.8 mph36.7 kmh 30.38 in1028.8 mb 0.00 in0.0 mm 0.00 in0.0 mm 0.00 in0.0 mm
03:40 PM 48.6°F9.2°C 36.9°F2.7°C 64% 11.0 mph ENE17.7 kmh ENE 23.5 mph37.8 kmh 30.38 in1028.8 mb 0.00 in0.0 mm 0.00 in0.0 mm 0.00 in0.0 mm
03:35 PM 48.7°F9.3°C 37.1°F2.8°C 64% 11.4 mph NE18.3 kmh NE 23.5 mph37.8 kmh 30.38 in1028.8 mb 0.00 in0.0 mm 0.00 in0.0 mm 0.00 in0.0 mm
03:30 PM 48.6°F9.2°C 37.3°F2.9°C 65% 10.6 mph NE17.1 kmh NE 22.1 mph35.6 kmh 30.38 in1028.8 mb 0.00 in0.0 mm 0.00 in0.0 mm 0.00 in0.0 mm
03:25 PM 48.4°F9.1°C 37.2°F2.9°C 65% 8.9 mph ENE14.3 kmh ENE 22.1 mph35.6 kmh 30.38 in1028.8 mb 0.00 in0.0 mm 0.00 in0.0 mm 0.00 in0.0 mm
03:20 PM 48.4°F9.1°C 37.2°F2.9°C 65% 7.8 mph ENE12.6 kmh ENE 19.7 mph31.7 kmh 30.38 in1028.8 mb 0.00 in0.0 mm 0.00 in0.0 mm 0.00 in0.0 mm
03:15 PM 48.2°F9.0°C 37.0°F2.8°C 65% 9.1 mph NE14.6 kmh NE 21.3 mph34.3 kmh 30.38 in1028.8 mb 0.00 in0.0 mm 0.00 in0.0 mm 0.00 in0.0 mm
03:10 PM 48.2°F9.0°C 36.6°F2.6°C 64% 10.2 mph NE16.4 kmh NE 21.3 mph34.3 kmh 30.38 in1028.8 mb 0.00 in0.0 mm 0.00 in0.0 mm 0.00 in0.0 mm
03:05 PM 48.6°F9.2°C 36.9°F2.7°C 64% 8.8 mph NE14.2 kmh NE 21.3 mph34.3 kmh 30.38 in1028.8 mb 0.00 in0.0 mm 0.00 in0.0 mm 0.00 in0.0 mm
03:00 PM 48.9°F9.4°C 36.9°F2.7°C 63% 8.2 mph NE13.2 kmh NE 21.3 mph34.3 kmh 30.38 in1028.8 mb 0.00 in0.0 mm 0.00 in0.0 mm 0.00 in0.0 mm
02:55 PM 49.1°F9.5°C 37.1°F2.8°C 63% 9.2 mph NE14.8 kmh NE 20.6 mph33.2 kmh 30.38 in1028.8 mb 0.00 in0.0 mm 0.00 in0.0 mm 0.00 in0.0 mm
02:50 PM 49.1°F9.5°C 37.1°F2.8°C 63% 9.6 mph NE15.4 kmh NE 22.1 mph35.6 kmh 30.38 in1028.8 mb 0.00 in0.0 mm 0.00 in0.0 mm 0.00 in0.0 mm
02:45 PM 48.9°F9.4°C 36.9°F2.7°C 63% 9.6 mph ENE15.4 kmh ENE 22.1 mph35.6 kmh 30.38 in1028.8 mb 0.00 in0.0 mm 0.00 in0.0 mm 0.00 in0.0 mm
02:40 PM 49.1°F9.5°C 37.1°F2.8°C 63% 9.5 mph ENE15.3 kmh ENE 19.7 mph31.7 kmh 30.38 in1028.8 mb 0.00 in0.0 mm 0.00 in0.0 mm 0.00 in0.0 mm
02:35 PM 49.3°F9.6°C 37.6°F3.1°C 64% 9.1 mph NE14.6 kmh NE 19.7 mph31.7 kmh 30.38 in1028.8 mb 0.00 in0.0 mm 0.00 in0.0 mm 0.00 in0.0 mm
02:30 PM 49.5°F9.7°C 38.2°F3.4°C 65% 8.8 mph NE14.2 kmh NE 19.0 mph30.6 kmh 30.38 in1028.8 mb 0.00 in0.0 mm 0.00 in0.0 mm 0.00 in0.0 mm
02:25 PM 49.5°F9.7°C 37.8°F3.2°C 64% 10.3 mph NE16.6 kmh NE 21.3 mph34.3 kmh 30.38 in1028.8 mb 0.00 in0.0 mm 0.00 in0.0 mm 0.00 in0.0 mm
02:20 PM 49.6°F9.8°C 37.6°F3.1°C 63% 10.8 mph NE17.4 kmh NE 21.3 mph34.3 kmh 30.38 in1028.8 mb 0.00 in0.0 mm 0.00 in0.0 mm 0.00 in0.0 mm
02:15 PM 49.8°F9.9°C 37.7°F3.2°C 63% 9.9 mph NE15.9 kmh NE 21.3 mph34.3 kmh 30.38 in1028.8 mb 0.00 in0.0 mm 0.00 in0.0 mm 0.00 in0.0 mm
02:10 PM 50.0°F10.0°C 38.3°F3.5°C 64% 9.5 mph NE15.3 kmh NE 23.5 mph37.8 kmh 30.38 in1028.8 mb 0.00 in0.0 mm 0.00 in0.0 mm 0.00 in0.0 mm
02:05 PM 50.0°F10.0°C 38.3°F3.5°C 64% 10.2 mph NE16.4 kmh NE 23.5 mph37.8 kmh 30.38 in1028.8 mb 0.00 in0.0 mm 0.00 in0.0 mm 0.00 in0.0 mm
02:00 PM 49.8°F9.9°C 38.1°F3.4°C 64% 11.6 mph ENE18.7 kmh ENE 24.4 mph39.3 kmh 30.38 in1028.8 mb 0.00 in0.0 mm 0.00 in0.0 mm 0.00 in0.0 mm
01:55 PM 50.0°F10.0°C 38.3°F3.5°C 64% 10.8 mph E17.4 kmh E 24.4 mph39.3 kmh 30.38 in1028.8 mb 0.00 in0.0 mm 0.00 in0.0 mm 0.00 in0.0 mm
01:50 PM 50.0°F10.0°C 38.3°F3.5°C 64% 9.8 mph E15.8 kmh E 22.8 mph36.7 kmh 30.38 in1028.8 mb 0.00 in0.0 mm 0.00 in0.0 mm 0.00 in0.0 mm
01:45 PM 50.0°F10.0°C 38.3°F3.5°C 64% 8.9 mph NE14.3 kmh NE 19.7 mph31.7 kmh 30.38 in1028.8 mb 0.00 in0.0 mm 0.00 in0.0 mm 0.00 in0.0 mm
01:40 PM 50.2°F10.1°C 38.5°F3.6°C 64% 9.4 mph NE15.1 kmh NE 19.7 mph31.7 kmh 30.38 in1028.8 mb 0.00 in0.0 mm 0.00 in0.0 mm 0.00 in0.0 mm
01:35 PM 49.8°F9.9°C 37.7°F3.2°C 63% 9.9 mph NE15.9 kmh NE 21.3 mph34.3 kmh 30.39 in1029.1 mb 0.00 in0.0 mm 0.00 in0.0 mm 0.00 in0.0 mm
01:30 PM 49.8°F9.9°C 38.1°F3.4°C 64% 9.3 mph NE15.0 kmh NE 22.8 mph36.7 kmh 30.39 in1029.1 mb 0.00 in0.0 mm 0.00 in0.0 mm 0.00 in0.0 mm
01:25 PM 49.8°F9.9°C 38.5°F3.6°C 65% 9.3 mph NE15.0 kmh NE 22.8 mph36.7 kmh 30.38 in1028.8 mb 0.00 in0.0 mm 0.00 in0.0 mm 0.00 in0.0 mm
01:20 PM 49.8°F9.9°C 38.5°F3.6°C 65% 10.0 mph NE16.1 kmh NE 20.6 mph33.2 kmh 30.39 in1029.1 mb 0.00 in0.0 mm 0.00 in0.0 mm 0.00 in0.0 mm
01:15 PM 49.6°F9.8°C 38.8°F3.8°C 66% 11.0 mph ENE17.7 kmh ENE 24.4 mph39.3 kmh 30.38 in1028.8 mb 0.00 in0.0 mm 0.00 in0.0 mm 0.00 in0.0 mm
01:10 PM 49.5°F9.7°C 38.6°F3.7°C 66% 11.3 mph ENE18.2 kmh ENE 24.4 mph39.3 kmh 30.38 in1028.8 mb 0.00 in0.0 mm 0.00 in0.0 mm 0.00 in0.0 mm
01:05 PM 49.5°F9.7°C 38.6°F3.7°C 66% 11.4 mph NE18.3 kmh NE 25.9 mph41.7 kmh 30.39 in1029.1 mb 0.00 in0.0 mm 0.00 in0.0 mm 0.00 in0.0 mm
01:00 PM 49.5°F9.7°C 39.0°F3.9°C 67% 12.7 mph NE20.4 kmh NE 25.9 mph41.7 kmh 30.39 in1029.1 mb 0.00 in0.0 mm 0.00 in0.0 mm 0.00 in0.0 mm
12:55 PM 49.1°F9.5°C 38.6°F3.7°C 67% 12.4 mph NE20.0 kmh NE 23.5 mph37.8 kmh 30.39 in1029.1 mb 0.00 in0.0 mm 0.00 in0.0 mm 0.00 in0.0 mm
12:50 PM 49.1°F9.5°C 38.6°F3.7°C 67% 11.3 mph NE18.2 kmh NE 22.8 mph36.7 kmh 30.40 in1029.5 mb 0.00 in0.0 mm 0.00 in0.0 mm 0.00 in0.0 mm
12:45 PM 49.1°F9.5°C 38.6°F3.7°C 67% 12.4 mph NE20.0 kmh NE 25.1 mph40.4 kmh 30.39 in1029.1 mb 0.00 in0.0 mm 0.00 in0.0 mm 0.00 in0.0 mm
12:40 PM 49.1°F9.5°C 38.6°F3.7°C 67% 13.4 mph NE21.6 kmh NE 26.6 mph42.8 kmh 30.40 in1029.5 mb 0.00 in0.0 mm 0.00 in0.0 mm 0.00 in0.0 mm
12:35 PM 49.1°F9.5°C 39.0°F3.9°C 68% 13.2 mph NE21.2 kmh NE 26.6 mph42.8 kmh 30.40 in1029.5 mb 0.00 in0.0 mm 0.00 in0.0 mm 0.00 in0.0 mm
12:30 PM 48.9°F9.4°C 38.8°F3.8°C 68% 12.5 mph NE20.1 kmh NE 30.4 mph48.9 kmh 30.40 in1029.5 mb 0.00 in0.0 mm 0.00 in0.0 mm 0.00 in0.0 mm
12:25 PM 48.9°F9.4°C 38.8°F3.8°C 68% 13.2 mph ENE21.2 kmh ENE 30.4 mph48.9 kmh 30.40 in1029.5 mb 0.00 in0.0 mm 0.00 in0.0 mm 0.00 in0.0 mm
12:20 PM 48.9°F9.4°C 38.5°F3.6°C 67% 13.8 mph ENE22.2 kmh ENE 30.4 mph48.9 kmh 30.41 in1029.8 mb 0.00 in0.0 mm 0.00 in0.0 mm 0.00 in0.0 mm
12:15 PM 48.7°F9.3°C 38.3°F3.5°C 67% 12.6 mph NE20.3 kmh NE 27.3 mph43.9 kmh 30.41 in1029.8 mb 0.00 in0.0 mm 0.00 in0.0 mm 0.00 in0.0 mm
12:10 PM 48.6°F9.2°C 38.5°F3.6°C 68% 12.7 mph ENE20.4 kmh ENE 31.1 mph50.1 kmh 30.41 in1029.8 mb 0.00 in0.0 mm 0.00 in0.0 mm 0.00 in0.0 mm
12:05 PM 48.6°F9.2°C 38.5°F3.6°C 68% 11.6 mph ENE18.7 kmh ENE 31.1 mph50.1 kmh 30.41 in1029.8 mb 0.00 in0.0 mm 0.00 in0.0 mm 0.00 in0.0 mm
12:00 PM 48.6°F9.2°C 39.2°F4.0°C 70% 10.4 mph E16.7 kmh E 21.3 mph34.3 kmh 30.42 in1030.1 mb 0.00 in0.0 mm 0.00 in0.0 mm 0.00 in0.0 mm
11:55 AM 48.4°F9.1°C 39.1°F3.9°C 70% 10.6 mph ENE17.1 kmh ENE 21.3 mph34.3 kmh 30.42 in1030.1 mb 0.00 in0.0 mm 0.00 in0.0 mm 0.00 in0.0 mm
11:50 AM 48.4°F9.1°C 39.4°F4.1°C 71% 9.2 mph ENE14.8 kmh ENE 22.8 mph36.7 kmh 30.42 in1030.1 mb 0.00 in0.0 mm 0.00 in0.0 mm 0.00 in0.0 mm
11:45 AM 48.2°F9.0°C 39.6°F4.2°C 72% 9.2 mph ENE14.8 kmh ENE 22.8 mph36.7 kmh 30.42 in1030.1 mb 0.00 in0.0 mm 0.00 in0.0 mm 0.00 in0.0 mm
11:40 AM 48.0°F8.9°C 39.4°F4.1°C 72% 9.9 mph ENE15.9 kmh ENE 22.1 mph35.6 kmh 30.43 in1030.5 mb 0.00 in0.0 mm 0.00 in0.0 mm 0.00 in0.0 mm
11:35 AM 48.0°F8.9°C 39.8°F4.3°C 73% 10.4 mph ENE16.7 kmh ENE 22.8 mph36.7 kmh 30.43 in1030.5 mb 0.00 in0.0 mm 0.00 in0.0 mm 0.00 in0.0 mm
11:30 AM 47.8°F8.8°C 39.6°F4.2°C 73% 10.2 mph ENE16.4 kmh ENE 22.8 mph36.7 kmh 30.43 in1030.5 mb 0.00 in0.0 mm 0.00 in0.0 mm 0.00 in0.0 mm
11:25 AM 47.7°F8.7°C 39.4°F4.1°C 73% 9.9 mph ENE15.9 kmh ENE 22.8 mph36.7 kmh 30.43 in1030.5 mb 0.00 in0.0 mm 0.00 in0.0 mm 0.00 in0.0 mm
11:20 AM 47.7°F8.7°C 39.4°F4.1°C 73% 9.4 mph NE15.1 kmh NE 22.8 mph36.7 kmh 30.44 in1030.8 mb 0.00 in0.0 mm 0.00 in0.0 mm 0.00 in0.0 mm
11:15 AM 47.7°F8.7°C 39.4°F4.1°C 73% 9.4 mph NE15.1 kmh NE 20.6 mph33.2 kmh 30.44 in1030.8 mb 0.00 in0.0 mm 0.00 in0.0 mm 0.00 in0.0 mm
11:10 AM 47.5°F8.6°C 39.3°F4.1°C 73% 10.6 mph NE17.1 kmh NE 24.4 mph39.3 kmh 30.44 in1030.8 mb 0.00 in0.0 mm 0.00 in0.0 mm 0.00 in0.0 mm
11:05 AM 47.1°F8.4°C 38.9°F3.8°C 73% 11.2 mph ENE18.0 kmh ENE 25.9 mph41.7 kmh 30.44 in1030.8 mb 0.00 in0.0 mm 0.00 in0.0 mm 0.00 in0.0 mm
11:00 AM 47.3°F8.5°C 39.1°F3.9°C 73% 10.5 mph NE16.9 kmh NE 25.9 mph41.7 kmh 30.44 in1030.8 mb 0.00 in0.0 mm 0.00 in0.0 mm 0.00 in0.0 mm
10:55 AM 47.1°F8.4°C 38.9°F3.8°C 73% 11.0 mph NE17.7 kmh NE 21.3 mph34.3 kmh 30.44 in1030.8 mb 0.00 in0.0 mm 0.00 in0.0 mm 0.00 in0.0 mm
10:50 AM 47.1°F8.4°C 38.9°F3.8°C 73% 10.4 mph NE16.7 kmh NE 21.3 mph34.3 kmh 30.44 in1030.8 mb 0.00 in0.0 mm 0.00 in0.0 mm 0.00 in0.0 mm
10:45 AM 47.1°F8.4°C 39.3°F4.1°C 74% 10.0 mph ENE16.1 kmh ENE 23.5 mph37.8 kmh 30.43 in1030.5 mb 0.00 in0.0 mm 0.00 in0.0 mm 0.00 in0.0 mm
10:40 AM 46.9°F8.3°C 38.7°F3.7°C 73% 11.6 mph ENE18.7 kmh ENE 23.5 mph37.8 kmh 30.44 in1030.8 mb 0.00 in0.0 mm 0.00 in0.0 mm 0.00 in0.0 mm
10:35 AM 46.9°F8.3°C 39.1°F3.9°C 74% 10.1 mph ENE16.3 kmh ENE 21.3 mph34.3 kmh 30.43 in1030.5 mb 0.00 in0.0 mm 0.00 in0.0 mm 0.00 in0.0 mm
10:30 AM 46.9°F8.3°C 39.4°F4.1°C 75% 9.0 mph ENE14.5 kmh ENE 19.0 mph30.6 kmh 30.43 in1030.5 mb 0.00 in0.0 mm 0.00 in0.0 mm 0.00 in0.0 mm
10:25 AM 46.9°F8.3°C 39.4°F4.1°C 75% 8.9 mph NE14.3 kmh NE 19.0 mph30.6 kmh 30.43 in1030.5 mb 0.00 in0.0 mm 0.00 in0.0 mm 0.00 in0.0 mm
10:20 AM 46.9°F8.3°C 39.8°F4.3°C 76% 8.4 mph ENE13.5 kmh ENE 16.8 mph27.0 kmh 30.43 in1030.5 mb 0.00 in0.0 mm 0.00 in0.0 mm 0.00 in0.0 mm
10:15 AM 47.1°F8.4°C 40.0°F4.4°C 76% 7.0 mph E11.3 kmh E 16.8 mph27.0 kmh 30.43 in1030.5 mb 0.00 in0.0 mm 0.00 in0.0 mm 0.00 in0.0 mm
10:10 AM 47.5°F8.6°C 40.6°F4.8°C 77% 4.3 mph NE6.9 kmh NE 11.4 mph18.3 kmh 30.43 in1030.5 mb 0.00 in0.0 mm 0.00 in0.0 mm 0.00 in0.0 mm
10:05 AM 47.5°F8.6°C 41.0°F5.0°C 78% 1.9 mph N3.1 kmh N 10.7 mph17.2 kmh 30.43 in1030.5 mb 0.00 in0.0 mm 0.00 in0.0 mm 0.00 in0.0 mm
10:00 AM 47.5°F8.6°C 41.3°F5.2°C 79% 0.8 mph WSW1.3 kmh WSW 5.4 mph8.7 kmh 30.43 in1030.5 mb 0.00 in0.0 mm 0.00 in0.0 mm 0.00 in0.0 mm
09:55 AM 47.8°F8.8°C 42.3°F5.7°C 81% 0.8 mph WSW1.3 kmh WSW 4.5 mph7.2 kmh 30.43 in1030.5 mb 0.00 in0.0 mm 0.00 in0.0 mm 0.00 in0.0 mm
09:50 AM 47.3°F8.5°C 42.4°F5.8°C 83% 1.4 mph S2.3 kmh S 5.4 mph8.7 kmh 30.43 in1030.5 mb 0.00 in0.0 mm 0.00 in0.0 mm 0.00 in0.0 mm
09:45 AM 47.1°F8.4°C 42.2°F5.7°C 83% 2.8 mph SSW4.5 kmh SSW 6.0 mph9.7 kmh 30.43 in1030.5 mb 0.00 in0.0 mm 0.00 in0.0 mm 0.00 in0.0 mm
09:40 AM 47.1°F8.4°C 42.5°F5.8°C 84% 3.6 mph SW5.8 kmh SW 7.6 mph12.2 kmh 30.42 in1030.1 mb 0.00 in0.0 mm 0.00 in0.0 mm 0.00 in0.0 mm
09:35 AM 46.4°F8.0°C 42.4°F5.8°C 86% 3.6 mph WSW5.8 kmh WSW 7.6 mph12.2 kmh 30.42 in1030.1 mb 0.00 in0.0 mm 0.00 in0.0 mm 0.00 in0.0 mm
09:30 AM 45.9°F7.7°C 42.2°F5.7°C 87% 3.3 mph SW5.3 kmh SW 6.9 mph11.1 kmh 30.42 in1030.1 mb 0.00 in0.0 mm 0.00 in0.0 mm 0.00 in0.0 mm
09:25 AM 45.3°F7.4°C 42.0°F5.6°C 88% 2.4 mph SW3.9 kmh SW 6.9 mph11.1 kmh 30.42 in1030.1 mb 0.00 in0.0 mm 0.00 in0.0 mm 0.00 in0.0 mm
09:20 AM 44.8°F7.1°C 41.7°F5.4°C 89% 1.7 mph WSW2.7 kmh WSW 5.4 mph8.7 kmh 30.42 in1030.1 mb 0.00 in0.0 mm 0.00 in0.0 mm 0.00 in0.0 mm
09:15 AM 44.1°F6.7°C 41.3°F5.2°C 90% 1.2 mph SW1.9 kmh SW 4.5 mph7.2 kmh 30.42 in1030.1 mb 0.00 in0.0 mm 0.00 in0.0 mm 0.00 in0.0 mm
09:10 AM 43.7°F6.5°C 41.2°F5.1°C 91% 2.1 mph WSW3.4 kmh WSW 7.6 mph12.2 kmh 30.41 in1029.8 mb 0.00 in0.0 mm 0.00 in0.0 mm 0.00 in0.0 mm
09:05 AM 43.2°F6.2°C 40.7°F4.8°C 91% 1.9 mph WSW3.1 kmh WSW 7.6 mph12.2 kmh 30.41 in1029.8 mb 0.00 in0.0 mm 0.00 in0.0 mm 0.00 in0.0 mm
09:00 AM 42.6°F5.9°C 40.5°F4.7°C 92% 0.8 mph WSW1.3 kmh WSW 4.5 mph7.2 kmh 30.41 in1029.8 mb 0.00 in0.0 mm 0.00 in0.0 mm 0.00 in0.0 mm
08:55 AM 42.3°F5.7°C 40.4°F4.7°C 93% 1.5 mph SW2.4 kmh SW 6.9 mph11.1 kmh 30.41 in1029.8 mb 0.00 in0.0 mm 0.00 in0.0 mm 0.00 in0.0 mm
08:50 AM 41.5°F5.3°C 39.7°F4.3°C 93% 1.8 mph SW2.9 kmh SW 6.9 mph11.1 kmh 30.41 in1029.8 mb 0.00 in0.0 mm 0.00 in0.0 mm 0.00 in0.0 mm
08:45 AM 41.0°F5.0°C 39.4°F4.1°C 94% 2.0 mph SW3.2 kmh SW 7.6 mph12.2 kmh 30.41 in1029.8 mb 0.00 in0.0 mm 0.00 in0.0 mm 0.00 in0.0 mm
08:40 AM 40.5°F4.7°C 38.9°F3.8°C 94% 2.1 mph SSW3.4 kmh SSW 7.6 mph12.2 kmh 30.41 in1029.8 mb 0.00 in0.0 mm 0.00 in0.0 mm 0.00 in0.0 mm
08:35 AM 39.7°F4.3°C 38.2°F3.4°C 94% 1.3 mph SW2.1 kmh SW 6.0 mph9.7 kmh 30.41 in1029.8 mb 0.00 in0.0 mm 0.00 in0.0 mm 0.00 in0.0 mm
08:30 AM 39.0°F3.9°C 37.4°F3.0°C 94% 1.1 mph WSW1.8 kmh WSW 6.0 mph9.7 kmh 30.41 in1029.8 mb 0.00 in0.0 mm 0.00 in0.0 mm 0.00 in0.0 mm
08:25 AM 38.3°F3.5°C 36.7°F2.6°C 94% 1.7 mph W2.7 kmh W 7.6 mph12.2 kmh 30.41 in1029.8 mb 0.00 in0.0 mm 0.00 in0.0 mm 0.00 in0.0 mm
08:20 AM 37.8°F3.2°C 36.2°F2.3°C 94% 2.6 mph WSW4.2 kmh WSW 7.6 mph12.2 kmh 30.41 in1029.8 mb 0.00 in0.0 mm 0.00 in0.0 mm 0.00 in0.0 mm
08:15 AM 37.4°F3.0°C 35.8°F2.1°C 94% 2.5 mph SW4.0 kmh SW 6.9 mph11.1 kmh 30.41 in1029.8 mb 0.00 in0.0 mm 0.00 in0.0 mm 0.00 in0.0 mm
08:10 AM 36.9°F2.7°C 35.3°F1.8°C 94% 2.0 mph SW3.2 kmh SW 6.9 mph11.1 kmh 30.41 in1029.8 mb 0.00 in0.0 mm 0.00 in0.0 mm 0.00 in0.0 mm
08:05 AM 36.7°F2.6°C 34.9°F1.6°C 93% 1.2 mph WSW1.9 kmh WSW 6.9 mph11.1 kmh 30.41 in1029.8 mb 0.00 in0.0 mm 0.00 in0.0 mm 0.00 in0.0 mm
08:00 AM 36.3°F2.4°C 34.5°F1.4°C 93% 1.4 mph WNW2.3 kmh WNW 5.4 mph8.7 kmh 30.41 in1029.8 mb 0.00 in0.0 mm 0.00 in0.0 mm 0.00 in0.0 mm
07:55 AM 36.0°F2.2°C 34.1°F1.2°C 93% 1.3 mph NW2.1 kmh NW 5.4 mph8.7 kmh 30.41 in1029.8 mb 0.00 in0.0 mm 0.00 in0.0 mm 0.00 in0.0 mm
07:50 AM 36.1°F2.3°C 34.3°F1.3°C 93% 0.6 mph W1.0 kmh W 3.8 mph6.1 kmh 30.41 in1029.8 mb 0.00 in0.0 mm 0.00 in0.0 mm 0.00 in0.0 mm
07:45 AM 36.1°F2.3°C 34.3°F1.3°C 93% 0.9 mph N1.4 kmh N 5.4 mph8.7 kmh 30.41 in1029.8 mb 0.00 in0.0 mm 0.00 in0.0 mm 0.00 in0.0 mm
07:40 AM 36.0°F2.2°C 34.1°F1.2°C 93% 0.7 mph N1.1 kmh N 5.4 mph8.7 kmh 30.42 in1030.1 mb 0.00 in0.0 mm 0.00 in0.0 mm 0.00 in0.0 mm
07:35 AM 36.0°F2.2°C 34.1°F1.2°C 93% 1.2 mph NW1.9 kmh NW 4.5 mph7.2 kmh 30.43 in1030.5 mb 0.00 in0.0 mm 0.00 in0.0 mm 0.00 in0.0 mm
07:30 AM 35.8°F2.1°C 34.0°F1.1°C 93% 1.8 mph NW2.9 kmh NW 4.5 mph7.2 kmh 30.42 in1030.1 mb 0.00 in0.0 mm 0.00 in0.0 mm 0.00 in0.0 mm
07:25 AM 35.8°F2.1°C 33.7°F0.9°C 92% 1.2 mph WNW1.9 kmh WNW 3.8 mph6.1 kmh 30.42 in1030.1 mb 0.00 in0.0 mm 0.00 in0.0 mm 0.00 in0.0 mm
07:20 AM 35.8°F2.1°C 34.0°F1.1°C 93% 0.7 mph W1.1 kmh W 3.8 mph6.1 kmh 30.43 in1030.5 mb 0.00 in0.0 mm 0.00 in0.0 mm 0.00 in0.0 mm
07:15 AM 35.6°F2.0°C 33.5°F0.8°C 92% 0.8 mph W1.3 kmh W 3.8 mph6.1 kmh 30.43 in1030.5 mb 0.00 in0.0 mm 0.00 in0.0 mm 0.00 in0.0 mm
07:10 AM 35.6°F2.0°C 33.5°F0.8°C 92% 1.0 mph WNW1.6 kmh WNW 3.8 mph6.1 kmh 30.43 in1030.5 mb 0.00 in0.0 mm 0.00 in0.0 mm 0.00 in0.0 mm
07:05 AM 35.8°F2.1°C 33.7°F0.9°C 92% 0.5 mph WNW0.8 kmh WNW 3.1 mph5.0 kmh 30.43 in1030.5 mb 0.00 in0.0 mm 0.00 in0.0 mm 0.00 in0.0 mm
07:00 AM 35.6°F2.0°C 33.5°F0.8°C 92% 0.9 mph WNW1.4 kmh WNW 3.8 mph6.1 kmh 30.43 in1030.5 mb 0.00 in0.0 mm 0.00 in0.0 mm 0.00 in0.0 mm
06:55 AM 35.8°F2.1°C 33.7°F0.9°C 92% 1.1 mph W1.8 kmh W 3.8 mph6.1 kmh 30.43 in1030.5 mb 0.00 in0.0 mm 0.00 in0.0 mm 0.00 in0.0 mm
06:50 AM 35.8°F2.1°C 33.7°F0.9°C 92% 0.9 mph WNW1.4 kmh WNW 4.5 mph7.2 kmh 30.42 in1030.1 mb 0.00 in0.0 mm 0.00 in0.0 mm 0.00 in0.0 mm
06:45 AM 35.6°F2.0°C 33.5°F0.8°C 92% 1.2 mph NW1.9 kmh NW 4.5 mph7.2 kmh 30.42 in1030.1 mb 0.00 in0.0 mm 0.00 in0.0 mm 0.00 in0.0 mm
06:40 AM 35.8°F2.1°C 33.7°F0.9°C 92% 1.1 mph NW1.8 kmh NW 4.5 mph7.2 kmh 30.42 in1030.1 mb 0.00 in0.0 mm 0.00 in0.0 mm 0.00 in0.0 mm
06:35 AM 35.8°F2.1°C 33.7°F0.9°C 92% 0.7 mph N1.1 kmh N 4.5 mph7.2 kmh 30.42 in1030.1 mb 0.00 in0.0 mm 0.00 in0.0 mm 0.00 in0.0 mm
06:30 AM 36.0°F2.2°C 33.9°F1.1°C 92% 0.2 mph N0.3 kmh N 1.6 mph2.6 kmh 30.42 in1030.1 mb 0.00 in0.0 mm 0.00 in0.0 mm 0.00 in0.0 mm
06:25 AM 36.0°F2.2°C 33.9°F1.1°C 92% 0.2 mph WSW0.3 kmh WSW 2.2 mph3.5 kmh 30.42 in1030.1 mb 0.00 in0.0 mm 0.00 in0.0 mm 0.00 in0.0 mm
06:20 AM 36.1°F2.3°C 34.0°F1.1°C 92% 0.6 mph SW1.0 kmh SW 3.1 mph5.0 kmh 30.41 in1029.8 mb 0.00 in0.0 mm 0.00 in0.0 mm 0.00 in0.0 mm
06:15 AM 36.1°F2.3°C 34.0°F1.1°C 92% 0.8 mph WSW1.3 kmh WSW 3.1 mph5.0 kmh 30.41 in1029.8 mb 0.00 in0.0 mm 0.00 in0.0 mm 0.00 in0.0 mm
06:10 AM 36.1°F2.3°C 34.0°F1.1°C 92% 0.7 mph W1.1 kmh W 3.8 mph6.1 kmh 30.41 in1029.8 mb 0.00 in0.0 mm 0.00 in0.0 mm 0.00 in0.0 mm
06:05 AM 36.1°F2.3°C 34.0°F1.1°C 92% 1.7 mph N2.7 kmh N 5.4 mph8.7 kmh 30.41 in1029.8 mb 0.00 in0.0 mm 0.00 in0.0 mm 0.00 in0.0 mm
06:00 AM 36.3°F2.4°C 34.2°F1.2°C 92% 1.5 mph N2.4 kmh N 5.4 mph8.7 kmh 30.41 in1029.8 mb 0.00 in0.0 mm 0.00 in0.0 mm 0.00 in0.0 mm
05:55 AM 36.5°F2.5°C 34.4°F1.3°C 92% 0.1 mph W0.2 kmh W 2.2 mph3.5 kmh 30.41 in1029.8 mb 0.00 in0.0 mm 0.00 in0.0 mm 0.00 in0.0 mm
05:50 AM 36.3°F2.4°C 34.2°F1.2°C 92% 0.1 mph W0.2 kmh W 2.2 mph3.5 kmh 30.41 in1029.8 mb 0.00 in0.0 mm 0.00 in0.0 mm 0.00 in0.0 mm
05:45 AM 36.1°F2.3°C 34.0°F1.1°C 92% 0.3 mph WSW0.5 kmh WSW 3.1 mph5.0 kmh 30.41 in1029.8 mb 0.00 in0.0 mm 0.00 in0.0 mm 0.00 in0.0 mm
05:40 AM 36.0°F2.2°C 33.9°F1.1°C 92% 0.6 mph WSW1.0 kmh WSW 3.1 mph5.0 kmh 30.41 in1029.8 mb 0.00 in0.0 mm 0.00 in0.0 mm 0.00 in0.0 mm
05:35 AM 36.1°F2.3°C 34.0°F1.1°C 92% 0.9 mph N1.4 kmh N 3.8 mph6.1 kmh 30.41 in1029.8 mb 0.00 in0.0 mm 0.00 in0.0 mm 0.00 in0.0 mm
05:30 AM 36.1°F2.3°C 34.0°F1.1°C 92% 1.3 mph WNW2.1 kmh WNW 5.4 mph8.7 kmh 30.40 in1029.5 mb 0.00 in0.0 mm 0.00 in0.0 mm 0.00 in0.0 mm
05:25 AM 36.0°F2.2°C 33.6°F0.9°C 91% 1.8 mph NW2.9 kmh NW 5.4 mph8.7 kmh 30.40 in1029.5 mb 0.00 in0.0 mm 0.00 in0.0 mm 0.00 in0.0 mm
05:20 AM 36.1°F2.3°C 33.8°F1.0°C 91% 2.4 mph NNW3.9 kmh NNW 5.4 mph8.7 kmh 30.40 in1029.5 mb 0.00 in0.0 mm 0.00 in0.0 mm 0.00 in0.0 mm
05:15 AM 36.3°F2.4°C 34.0°F1.1°C 91% 2.3 mph NNE3.7 kmh NNE 4.5 mph7.2 kmh 30.40 in1029.5 mb 0.00 in0.0 mm 0.00 in0.0 mm 0.00 in0.0 mm
05:10 AM 36.3°F2.4°C 34.0°F1.1°C 91% 1.7 mph NNW2.7 kmh NNW 4.5 mph7.2 kmh 30.41 in1029.8 mb 0.00 in0.0 mm 0.00 in0.0 mm 0.00 in0.0 mm
05:05 AM 36.5°F2.5°C 34.1°F1.2°C 91% 1.3 mph W2.1 kmh W 4.5 mph7.2 kmh 30.40 in1029.5 mb 0.00 in0.0 mm 0.00 in0.0 mm 0.00 in0.0 mm
05:00 AM 36.5°F2.5°C 34.1°F1.2°C 91% 1.1 mph SW1.8 kmh SW 3.8 mph6.1 kmh 30.40 in1029.5 mb 0.00 in0.0 mm 0.00 in0.0 mm 0.00 in0.0 mm
04:55 AM 36.7°F2.6°C 34.3°F1.3°C 91% 0.9 mph SW1.4 kmh SW 3.8 mph6.1 kmh 30.40 in1029.5 mb 0.00 in0.0 mm 0.00 in0.0 mm 0.00 in0.0 mm
04:50 AM 36.5°F2.5°C 34.1°F1.2°C 91% 0.6 mph WSW1.0 kmh WSW 3.8 mph6.1 kmh 30.41 in1029.8 mb 0.00 in0.0 mm 0.00 in0.0 mm 0.00 in0.0 mm
04:45 AM 36.5°F2.5°C 34.1°F1.2°C 91% 0.7 mph WSW1.1 kmh WSW 4.5 mph7.2 kmh 30.41 in1029.8 mb 0.00 in0.0 mm 0.00 in0.0 mm 0.00 in0.0 mm
04:40 AM 36.7°F2.6°C 34.3°F1.3°C 91% 1.4 mph SW2.3 kmh SW 6.0 mph9.7 kmh 30.41 in1029.8 mb 0.00 in0.0 mm 0.00 in0.0 mm 0.00 in0.0 mm
04:35 AM 36.5°F2.5°C 34.1°F1.2°C 91% 1.5 mph SW2.4 kmh SW 6.0 mph9.7 kmh 30.41 in1029.8 mb 0.00 in0.0 mm 0.00 in0.0 mm 0.00 in0.0 mm
04:30 AM 36.9°F2.7°C 34.5°F1.4°C 91% 1.0 mph W1.6 kmh W 3.8 mph6.1 kmh 30.41 in1029.8 mb 0.00 in0.0 mm 0.00 in0.0 mm 0.00 in0.0 mm
04:25 AM 36.7°F2.6°C 34.3°F1.3°C 91% 1.3 mph W2.1 kmh W 5.4 mph8.7 kmh 30.40 in1029.5 mb 0.00 in0.0 mm 0.00 in0.0 mm 0.00 in0.0 mm
04:20 AM 36.9°F2.7°C 34.5°F1.4°C 91% 1.4 mph WNW2.3 kmh WNW 6.0 mph9.7 kmh 30.40 in1029.5 mb 0.00 in0.0 mm 0.00 in0.0 mm 0.00 in0.0 mm
04:15 AM 37.2°F2.9°C 34.8°F1.6°C 91% 1.2 mph NW1.9 kmh NW 6.0 mph9.7 kmh 30.40 in1029.5 mb 0.00 in0.0 mm 0.00 in0.0 mm 0.00 in0.0 mm
04:10 AM 37.4°F3.0°C 35.0°F1.7°C 91% 1.3 mph N2.1 kmh N 5.4 mph8.7 kmh 30.41 in1029.8 mb 0.00 in0.0 mm 0.00 in0.0 mm 0.00 in0.0 mm
04:05 AM 37.2°F2.9°C 34.8°F1.6°C 91% 1.6 mph N2.6 kmh N 5.4 mph8.7 kmh 30.40 in1029.5 mb 0.00 in0.0 mm 0.00 in0.0 mm 0.00 in0.0 mm
04:00 AM 37.4°F3.0°C 35.3°F1.8°C 92% 1.5 mph N2.4 kmh N 5.4 mph8.7 kmh 30.41 in1029.8 mb 0.00 in0.0 mm 0.00 in0.0 mm 0.00 in0.0 mm
03:55 AM 37.6°F3.1°C 35.5°F1.9°C 92% 0.8 mph NE1.3 kmh NE 5.4 mph8.7 kmh 30.41 in1029.8 mb 0.00 in0.0 mm 0.00 in0.0 mm 0.00 in0.0 mm
03:50 AM 37.6°F3.1°C 35.5°F1.9°C 92% 2.0 mph SW3.2 kmh SW 6.9 mph11.1 kmh 30.41 in1029.8 mb 0.00 in0.0 mm 0.00 in0.0 mm 0.00 in0.0 mm
03:45 AM 37.6°F3.1°C 35.5°F1.9°C 92% 2.9 mph SW4.7 kmh SW 6.9 mph11.1 kmh 30.40 in1029.5 mb 0.00 in0.0 mm 0.00 in0.0 mm 0.00 in0.0 mm
03:40 AM 37.4°F3.0°C 35.3°F1.8°C 92% 1.8 mph S2.9 kmh S 4.5 mph7.2 kmh 30.41 in1029.8 mb 0.00 in0.0 mm 0.00 in0.0 mm 0.00 in0.0 mm
03:35 AM 37.2°F2.9°C 35.1°F1.7°C 92% 0.9 mph SSW1.4 kmh SSW 3.8 mph6.1 kmh 30.40 in1029.5 mb 0.00 in0.0 mm 0.00 in0.0 mm 0.00 in0.0 mm
03:30 AM 37.2°F2.9°C 35.1°F1.7°C 92% 0.6 mph NNE1.0 kmh NNE 4.5 mph7.2 kmh 30.40 in1029.5 mb 0.00 in0.0 mm 0.00 in0.0 mm 0.00 in0.0 mm
03:25 AM 37.0°F2.8°C 34.9°F1.6°C 92% 1.2 mph NNE1.9 kmh NNE 4.5 mph7.2 kmh 30.40 in1029.5 mb 0.00 in0.0 mm 0.00 in0.0 mm 0.00 in0.0 mm
03:20 AM 37.2°F2.9°C 35.1°F1.7°C 92% 1.6 mph NE2.6 kmh NE 4.5 mph7.2 kmh 30.40 in1029.5 mb 0.00 in0.0 mm 0.00 in0.0 mm 0.00 in0.0 mm
03:15 AM 37.4°F3.0°C 35.3°F1.8°C 92% 0.9 mph SE1.4 kmh SE 3.8 mph6.1 kmh 30.40 in1029.5 mb 0.00 in0.0 mm 0.00 in0.0 mm 0.00 in0.0 mm
03:10 AM 37.6°F3.1°C 35.5°F1.9°C 92% 0.5 mph WSW0.8 kmh WSW 3.8 mph6.1 kmh 30.40 in1029.5 mb 0.00 in0.0 mm 0.00 in0.0 mm 0.00 in0.0 mm
03:05 AM 37.4°F3.0°C 35.3°F1.8°C 92% 0.3 mph WSW0.5 kmh WSW 3.8 mph6.1 kmh 30.39 in1029.1 mb 0.00 in0.0 mm 0.00 in0.0 mm 0.00 in0.0 mm
03:00 AM 37.4°F3.0°C 35.3°F1.8°C 92% 0.3 mph NW0.5 kmh NW 2.2 mph3.5 kmh 30.40 in1029.5 mb 0.00 in0.0 mm 0.00 in0.0 mm 0.00 in0.0 mm
02:55 AM 37.4°F3.0°C 35.3°F1.8°C 92% 0.6 mph W1.0 kmh W 3.1 mph5.0 kmh 30.39 in1029.1 mb 0.00 in0.0 mm 0.00 in0.0 mm 0.00 in0.0 mm
02:50 AM 37.4°F3.0°C 35.3°F1.8°C 92% 0.8 mph WSW1.3 kmh WSW 3.1 mph5.0 kmh 30.39 in1029.1 mb 0.00 in0.0 mm 0.00 in0.0 mm 0.00 in0.0 mm
02:45 AM 37.2°F2.9°C 35.1°F1.7°C 92% 1.3 mph W2.1 kmh W 5.4 mph8.7 kmh 30.40 in1029.5 mb 0.00 in0.0 mm 0.00 in0.0 mm 0.00 in0.0 mm
02:40 AM 37.2°F2.9°C 35.1°F1.7°C 92% 1.5 mph W2.4 kmh W 6.0 mph9.7 kmh 30.40 in1029.5 mb 0.00 in0.0 mm 0.00 in0.0 mm 0.00 in0.0 mm
02:35 AM 37.0°F2.8°C 34.9°F1.6°C 92% 1.4 mph SW2.3 kmh SW 6.0 mph9.7 kmh 30.40 in1029.5 mb 0.00 in0.0 mm 0.00 in0.0 mm 0.00 in0.0 mm
02:30 AM 37.0°F2.8°C 34.9°F1.6°C 92% 2.6 mph W4.2 kmh W 6.0 mph9.7 kmh 30.39 in1029.1 mb 0.00 in0.0 mm 0.00 in0.0 mm 0.00 in0.0 mm
02:25 AM 37.0°F2.8°C 34.9°F1.6°C 92% 2.3 mph WNW3.7 kmh WNW 6.0 mph9.7 kmh 30.40 in1029.5 mb 0.00 in0.0 mm 0.00 in0.0 mm 0.00 in0.0 mm
02:20 AM 37.2°F2.9°C 35.1°F1.7°C 92% 1.3 mph WNW2.1 kmh WNW 5.4 mph8.7 kmh 30.40 in1029.5 mb 0.00 in0.0 mm 0.00 in0.0 mm 0.00 in0.0 mm
02:15 AM 37.2°F2.9°C 35.1°F1.7°C 92% 1.6 mph NW2.6 kmh NW 4.5 mph7.2 kmh 30.39 in1029.1 mb 0.00 in0.0 mm 0.00 in0.0 mm 0.00 in0.0 mm
02:10 AM 37.6°F3.1°C 35.5°F1.9°C 92% 1.4 mph NW2.3 kmh NW 4.5 mph7.2 kmh 30.40 in1029.5 mb 0.00 in0.0 mm 0.00 in0.0 mm 0.00 in0.0 mm
02:05 AM 37.6°F3.1°C 35.7°F2.1°C 93% 0.9 mph ENE1.4 kmh ENE 3.8 mph6.1 kmh 30.39 in1029.1 mb 0.00 in0.0 mm 0.00 in0.0 mm 0.00 in0.0 mm
02:00 AM 37.6°F3.1°C 35.7°F2.1°C 93% 1.1 mph NE1.8 kmh NE 6.9 mph11.1 kmh 30.40 in1029.5 mb 0.00 in0.0 mm 0.00 in0.0 mm 0.00 in0.0 mm
01:55 AM 37.6°F3.1°C 35.7°F2.1°C 93% 2.2 mph NE3.5 kmh NE 9.2 mph14.8 kmh 30.39 in1029.1 mb 0.00 in0.0 mm 0.00 in0.0 mm 0.00 in0.0 mm
01:50 AM 37.0°F2.8°C 34.9°F1.6°C 92% 2.2 mph N3.5 kmh N 9.2 mph14.8 kmh 30.40 in1029.5 mb 0.00 in0.0 mm 0.00 in0.0 mm 0.00 in0.0 mm
01:45 AM 37.0°F2.8°C 34.9°F1.6°C 92% 1.7 mph W2.7 kmh W 5.4 mph8.7 kmh 30.39 in1029.1 mb 0.00 in0.0 mm 0.00 in0.0 mm 0.00 in0.0 mm
01:40 AM 36.9°F2.7°C 34.8°F1.6°C 92% 1.7 mph WNW2.7 kmh WNW 5.4 mph8.7 kmh 30.39 in1029.1 mb 0.00 in0.0 mm 0.00 in0.0 mm 0.00 in0.0 mm
01:35 AM 37.0°F2.8°C 34.9°F1.6°C 92% 1.2 mph W1.9 kmh W 4.5 mph7.2 kmh 30.39 in1029.1 mb 0.00 in0.0 mm 0.00 in0.0 mm 0.00 in0.0 mm
01:30 AM 37.0°F2.8°C 34.9°F1.6°C 92% 1.3 mph W2.1 kmh W 4.5 mph7.2 kmh 30.40 in1029.5 mb 0.00 in0.0 mm 0.00 in0.0 mm 0.00 in0.0 mm
01:25 AM 37.0°F2.8°C 34.9°F1.6°C 92% 2.0 mph W3.2 kmh W 5.4 mph8.7 kmh 30.39 in1029.1 mb 0.00 in0.0 mm 0.00 in0.0 mm 0.00 in0.0 mm
01:20 AM 37.0°F2.8°C 34.9°F1.6°C 92% 1.2 mph W1.9 kmh W 5.4 mph8.7 kmh 30.39 in1029.1 mb 0.00 in0.0 mm 0.00 in0.0 mm 0.00 in0.0 mm
01:15 AM 37.0°F2.8°C 34.9°F1.6°C 92% 0.2 mph W0.3 kmh W 4.5 mph7.2 kmh 30.39 in1029.1 mb 0.00 in0.0 mm 0.00 in0.0 mm 0.00 in0.0 mm
01:10 AM 37.0°F2.8°C 34.9°F1.6°C 92% 0.2 mph NE0.3 kmh NE 2.2 mph3.5 kmh 30.39 in1029.1 mb 0.00 in0.0 mm 0.00 in0.0 mm 0.00 in0.0 mm
01:05 AM 37.2°F2.9°C 35.1°F1.7°C 92% 0.8 mph SW1.3 kmh SW 4.5 mph7.2 kmh 30.39 in1029.1 mb 0.00 in0.0 mm 0.00 in0.0 mm 0.00 in0.0 mm
01:00 AM 37.0°F2.8°C 34.9°F1.6°C 92% 0.8 mph WSW1.3 kmh WSW 5.4 mph8.7 kmh 30.39 in1029.1 mb 0.00 in0.0 mm 0.00 in0.0 mm 0.00 in0.0 mm
12:55 AM 37.0°F2.8°C 34.7°F1.5°C 91% 1.0 mph WNW1.6 kmh WNW 6.0 mph9.7 kmh 30.40 in1029.5 mb 0.00 in0.0 mm 0.00 in0.0 mm 0.00 in0.0 mm
12:50 AM 37.0°F2.8°C 34.7°F1.5°C 91% 1.0 mph NW1.6 kmh NW 6.0 mph9.7 kmh 30.39 in1029.1 mb 0.00 in0.0 mm 0.00 in0.0 mm 0.00 in0.0 mm
12:45 AM 37.2°F2.9°C 34.8°F1.6°C 91% 0.5 mph WNW0.8 kmh WNW 6.9 mph11.1 kmh 30.40 in1029.5 mb 0.00 in0.0 mm 0.00 in0.0 mm 0.00 in0.0 mm
12:40 AM 37.2°F2.9°C 34.8°F1.6°C 91% 0.3 mph W0.5 kmh W 6.9 mph11.1 kmh 30.40 in1029.5 mb 0.00 in0.0 mm 0.00 in0.0 mm 0.00 in0.0 mm
12:35 AM 37.2°F2.9°C 34.8°F1.6°C 91% 1.1 mph WNW1.8 kmh WNW 5.4 mph8.7 kmh 30.40 in1029.5 mb 0.00 in0.0 mm 0.00 in0.0 mm 0.00 in0.0 mm
12:30 AM 37.0°F2.8°C 34.7°F1.5°C 91% 1.2 mph WNW1.9 kmh WNW 5.4 mph8.7 kmh 30.41 in1029.8 mb 0.00 in0.0 mm 0.00 in0.0 mm 0.00 in0.0 mm
12:25 AM 37.2°F2.9°C 34.8°F1.6°C 91% 0.3 mph W0.5 kmh W 3.8 mph6.1 kmh 30.41 in1029.8 mb 0.00 in0.0 mm 0.00 in0.0 mm 0.00 in0.0 mm
12:20 AM 37.2°F2.9°C 34.8°F1.6°C 91% 0.4 mph W0.6 kmh W 6.0 mph9.7 kmh 30.41 in1029.8 mb 0.00 in0.0 mm 0.00 in0.0 mm 0.00 in0.0 mm
12:15 AM 37.0°F2.8°C 34.7°F1.5°C 91% 1.2 mph SW1.9 kmh SW 6.0 mph9.7 kmh 30.41 in1029.8 mb 0.00 in0.0 mm 0.00 in0.0 mm 0.00 in0.0 mm
12:10 AM 37.0°F2.8°C 34.7°F1.5°C 91% 1.8 mph SSE2.9 kmh SSE 3.8 mph6.1 kmh 30.41 in1029.8 mb 0.00 in0.0 mm 0.00 in0.0 mm 0.00 in0.0 mm
12:05 AM 37.0°F2.8°C 34.7°F1.5°C 91% 2.1 mph NE3.4 kmh NE 5.4 mph8.7 kmh 30.41 in1029.8 mb 0.00 in0.0 mm 0.00 in0.0 mm 0.00 in0.0 mm
12:00 AM 36.9°F2.7°C 34.2°F1.2°C 90% 1.9 mph N3.1 kmh N 6.0 mph9.7 kmh 30.41 in1029.8 mb 0.00 in0.0 mm 0.00 in0.0 mm 0.00 in0.0 mm